Time;durP1;ratioP1;P1;durP2;ratioP2;P2;SDS_P1;SDS_P2;PMS_P1;PMS_P2;Temp;Humidity;BMP_temperature;BMP_pressure;BME280_temperature;BME280_humidity;BME280_pressure;Samples;Min_cycle;Max_cycle;Signal;HPM_P1;HPM_P2
2023/09/11 00:01:31;;;;;;;8.55;7.65;;;;;;;23.42;66.69;101402.47;5109471;28;20073;-71
2023/09/11 00:03:57;;;;;;;9.07;8.18;;;;;;;23.53;66.79;101412.00;5107298;28;20020;-71
2023/09/11 00:06:23;;;;;;;9.48;8.40;;;;;;;23.53;66.50;101414.72;5111117;28;20024;-71
2023/09/11 00:08:49;;;;;;;10.30;9.30;;;;;;;23.52;66.45;101408.44;5110469;28;20060;-71
2023/09/11 00:11:14;;;;;;;9.05;7.40;;;;;;;23.47;66.61;101399.19;5108532;28;20024;-71
2023/09/11 00:13:40;;;;;;;9.23;7.68;;;;;;;23.53;66.51;101410.13;5114716;28;20028;-71
2023/09/11 00:16:05;;;;;;;9.10;8.20;;;;;;;23.53;66.39;101406.56;5113672;28;20030;-71
2023/09/11 00:18:30;;;;;;;9.45;8.00;;;;;;;23.52;66.39;101397.59;5111163;28;20051;-71
2023/09/11 00:20:55;;;;;;;9.20;8.23;;;;;;;23.52;66.38;101394.88;5111801;28;20024;-71
2023/09/11 00:23:21;;;;;;;9.55;7.97;;;;;;;23.52;66.35;101392.16;5111883;28;20032;-71
2023/09/11 00:25:46;;;;;;;8.73;7.88;;;;;;;23.53;66.18;101401.16;5123776;28;20020;-71
2023/09/11 00:28:11;;;;;;;8.60;7.70;;;;;;;23.52;66.39;101397.59;5113238;28;20072;-71
2023/09/11 00:30:37;;;;;;;9.63;8.00;;;;;;;23.35;66.06;101360.81;5111541;28;20111;-71
2023/09/11 00:33:03;;;;;;;9.98;8.98;;;;;;;23.44;66.32;101384.94;5109765;28;20040;-71
2023/09/11 00:35:28;;;;;;;8.63;7.60;;;;;;;23.52;66.33;101389.44;5112596;28;20073;-71
2023/09/11 00:37:53;;;;;;;8.65;7.85;;;;;;;23.52;66.18;101385.91;5110937;28;20087;-71
2023/09/11 00:40:18;;;;;;;9.20;7.97;;;;;;;23.42;66.25;101378.03;5113137;28;20039;-71
2023/09/11 00:42:44;;;;;;;9.70;8.10;;;;;;;23.53;66.09;101393.00;5113350;28;20024;-71
2023/09/11 00:45:10;;;;;;;9.52;8.15;;;;;;;23.50;66.12;101388.81;5109644;28;20057;-71
2023/09/11 00:47:40;;;;;;;7.82;6.93;;;;;;;23.34;66.13;101365.41;5113763;28;20024;-71
2023/09/11 00:50:07;;;;;;;9.18;7.78;;;;;;;23.50;65.97;101390.69;5114517;28;20542;-71
2023/09/11 00:52:32;;;;;;;8.48;7.68;;;;;;;23.19;65.87;101335.56;5097000;28;20032;-71
2023/09/11 00:54:58;;;;;;;9.82;7.53;;;;;;;23.48;66.03;101379.16;5117882;28;20024;-71
2023/09/11 00:57:23;;;;;;;7.82;7.07;;;;;;;23.40;65.88;101370.06;5113967;28;20023;-72
2023/09/11 00:59:49;;;;;;;10.85;8.75;;;;;;;23.45;65.73;101370.38;5107412;28;20768;-71
2023/09/11 01:02:15;;;;;;;10.90;7.97;;;;;;;23.52;65.85;101377.75;5118507;28;20031;-71
2023/09/11 01:04:41;;;;;;;8.35;7.10;;;;;;;23.52;65.87;101380.47;5117812;28;20016;-71
2023/09/11 01:07:06;;;;;;;9.93;7.70;;;;;;;23.25;65.69;101336.69;5108165;28;20157;-71
2023/09/11 01:09:33;;;;;;;8.30;6.90;;;;;;;23.51;65.80;101374.19;5121050;28;20039;-71
2023/09/11 01:11:58;;;;;;;7.70;7.00;;;;;;;23.41;65.71;101360.94;5110999;28;20063;-71
2023/09/11 01:14:23;;;;;;;7.53;6.78;;;;;;;23.51;65.62;101368.78;5109474;27;20088;-71
2023/09/11 01:16:57;;;;;;;8.57;7.55;;;;;;;23.18;65.42;101327.59;5117157;28;20052;-71
2023/09/11 01:19:34;;;;;;;8.02;7.18;;;;;;;23.51;65.42;101376.06;5110124;28;20095;-71
2023/09/11 01:22:21;;;;;;;8.73;7.15;;;;;;;23.51;65.80;101376.06;5120797;28;20478;-71
2023/09/11 01:25:00;;;;;;;9.48;7.63;;;;;;;23.50;65.51;101368.97;5112863;28;20046;-71
2023/09/11 01:27:44;;;;;;;8.85;7.72;;;;;;;23.50;65.56;101360.84;5109042;28;20070;-71
2023/09/11 01:30:12;;;;;;;9.93;7.80;;;;;;;23.37;65.29;101345.22;5119934;28;20032;-71
2023/09/11 01:32:37;;;;;;;8.50;7.60;;;;;;;23.42;65.32;101348.19;5109740;28;20031;-72
2023/09/11 01:35:03;;;;;;;7.95;7.13;;;;;;;23.49;65.43;101368.13;5111199;28;20024;-72
2023/09/11 01:37:30;;;;;;;7.32;6.63;;;;;;;23.43;65.40;101353.44;5117037;28;20028;-71
2023/09/11 01:39:55;;;;;;;8.48;7.43;;;;;;;23.49;65.40;101364.56;5109367;28;20028;-72
2023/09/11 01:42:29;;;;;;;8.52;7.70;;;;;;;23.47;65.30;101361.19;5111545;28;20028;-71
2023/09/11 01:44:55;;;;;;;7.95;7.03;;;;;;;23.49;65.14;101361.84;5113691;28;20779;-71
2023/09/11 01:47:22;;;;;;;8.20;6.97;;;;;;;23.50;65.19;101366.25;5107812;28;20036;-71
2023/09/11 01:49:48;;;;;;;8.02;7.22;;;;;;;23.48;65.31;101358.28;5115362;28;20030;-71
2023/09/11 01:52:15;;;;;;;7.68;6.95;;;;;;;23.49;65.37;101356.41;5112243;28;20031;-71
2023/09/11 01:54:41;;;;;;;7.50;6.70;;;;;;;23.49;65.07;101359.13;5109146;28;20034;-71
2023/09/11 01:57:07;;;;;;;7.78;6.95;;;;;;;23.49;65.20;101356.41;5105301;28;20039;-71
2023/09/11 01:59:32;;;;;;;7.57;6.80;;;;;;;23.41;65.03;101350.06;5105078;28;20020;-71
2023/09/11 02:01:57;;;;;;;8.40;7.38;;;;;;;23.37;65.10;101328.94;5107470;28;20027;-71
2023/09/11 02:04:23;;;;;;;7.78;6.97;;;;;;;23.30;65.21;101326.13;5105718;28;20028;-71
2023/09/11 02:06:48;;;;;;;8.77;7.32;;;;;;;23.20;64.96;101306.56;5106059;28;20023;-71
2023/09/11 02:09:13;;;;;;;9.30;7.35;;;;;;;23.48;64.93;101358.28;5109143;28;20071;-71
2023/09/11 02:11:39;;;;;;;10.23;7.22;;;;;;;23.17;65.13;101306.94;5106550;28;20027;-71
2023/09/11 02:14:04;;;;;;;7.97;6.90;;;;;;;23.45;65.04;101350.53;5106465;28;20039;-72
2023/09/11 02:16:29;;;;;;;9.20;7.10;;;;;;;23.44;64.69;101349.66;5112745;28;20384;-71
2023/09/11 02:18:54;;;;;;;7.78;7.07;;;;;;;23.27;64.82;101317.50;5107604;28;20139;-71
2023/09/11 02:21:21;;;;;;;8.57;7.10;;;;;;;23.48;64.86;101346.59;5107044;28;20500;-71
2023/09/11 02:23:46;;;;;;;9.13;7.00;;;;;;;23.47;64.93;101348.47;5110481;28;20035;-71
2023/09/11 02:26:11;;;;;;;7.45;6.32;;;;;;;23.47;64.82;101344.91;5114593;28;20028;-71
2023/09/11 02:28:37;;;;;;;8.75;6.72;;;;;;;23.36;64.79;101330.81;5106806;28;20027;-71
2023/09/11 02:31:02;;;;;;;7.50;6.72;;;;;;;23.22;64.88;101304.50;5111420;28;20024;-71
2023/09/11 02:33:27;;;;;;;8.77;7.72;;;;;;;23.47;64.71;101337.59;5109970;28;20043;-71
2023/09/11 02:35:54;;;;;;;7.65;6.95;;;;;;;23.47;64.90;101343.03;5108637;28;20086;-72
2023/09/11 02:38:20;;;;;;;8.13;6.80;;;;;;;23.47;64.83;101334.06;5111226;28;20027;-71
2023/09/11 02:40:45;;;;;;;7.90;7.05;;;;;;;23.47;64.72;101328.63;5108233;28;20616;-71
2023/09/11 02:43:10;;;;;;;8.73;7.82;;;;;;;23.46;64.69;101327.78;5109417;28;20031;-71
2023/09/11 02:45:36;;;;;;;7.85;7.07;;;;;;;23.25;64.88;101289.72;5111579;28;20024;-71
2023/09/11 02:48:01;;;;;;;7.32;6.63;;;;;;;23.43;64.77;101320.03;5109013;28;20032;-71
2023/09/11 02:50:26;;;;;;;7.95;7.25;;;;;;;23.39;64.94;101305.97;5110005;28;20027;-71
2023/09/11 02:52:51;;;;;;;9.02;7.15;;;;;;;23.45;64.90;101315.25;5111803;28;20039;-71
2023/09/11 02:55:17;;;;;;;6.75;6.10;;;;;;;23.45;64.63;101316.09;5113015;28;20027;-71
2023/09/11 02:57:42;;;;;;;7.43;6.38;;;;;;;23.45;64.71;101313.38;5116253;28;20056;-71
2023/09/11 03:00:09;;;;;;;7.45;6.75;;;;;;;23.43;64.70;101310.00;5116235;28;20023;-71
2023/09/11 03:02:34;;;;;;;8.13;6.78;;;;;;;23.45;64.66;101307.13;5093661;28;20031;-71
2023/09/11 03:05:00;;;;;;;7.55;6.85;;;;;;;23.37;64.84;101294.50;5115405;28;20028;-71
2023/09/11 03:07:25;;;;;;;7.53;6.65;;;;;;;23.29;64.53;101280.19;5119404;28;20020;-71
2023/09/11 03:09:50;;;;;;;7.65;6.95;;;;;;;23.34;64.65;101275.03;5110275;28;20039;-71
2023/09/11 03:12:15;;;;;;;7.22;6.53;;;;;;;23.42;64.68;101294.75;5117710;28;20024;-71
2023/09/11 03:14:41;;;;;;;7.68;6.93;;;;;;;23.42;64.71;101291.22;5120338;27;20031;-71
2023/09/11 03:17:06;;;;;;;7.40;6.70;;;;;;;23.22;64.63;101258.38;5108470;28;20032;-71
2023/09/11 03:19:35;;;;;;;7.80;7.00;;;;;;;23.29;64.47;101262.03;5119893;28;20083;-71
2023/09/11 03:22:00;;;;;;;;;;;;;;;23.45;64.66;101288.13;5115722;27;20058;-71
2023/09/11 03:24:26;;;;;;;7.05;6.35;;;;;;;23.43;64.58;101280.16;5109361;28;19915;-71
2023/09/11 03:26:51;;;;;;;7.07;6.32;;;;;;;23.43;64.36;101277.44;5123419;28;20035;-71
2023/09/11 03:29:17;;;;;;;7.30;6.60;;;;;;;23.43;64.46;101276.59;5114203;28;20059;-71
2023/09/11 03:31:42;;;;;;;7.60;6.90;;;;;;;23.30;64.70;101254.72;5112140;28;20019;-71
2023/09/11 03:34:08;;;;;;;7.07;6.25;;;;;;;23.42;64.52;101278.47;5119321;27;20479;-71
2023/09/11 03:36:33;;;;;;;6.63;5.97;;;;;;;23.43;64.66;101273.88;5112610;28;20034;-71
2023/09/11 03:38:58;;;;;;;7.80;6.85;;;;;;;23.32;64.47;101256.25;5115487;28;20123;-71
2023/09/11 03:41:24;;;;;;;8.27;7.47;;;;;;;23.44;64.40;101270.13;5119602;28;20091;-72
2023/09/11 03:43:49;;;;;;;7.97;7.18;;;;;;;23.15;64.56;101224.91;5111503;28;20024;-71
2023/09/11 03:46:15;;;;;;;7.45;6.35;;;;;;;23.43;64.28;101273.88;5116869;28;20233;-71
2023/09/11 03:48:41;;;;;;;6.75;6.07;;;;;;;23.27;64.53;101253.22;5116072;28;20022;-71
2023/09/11 03:51:06;;;;;;;7.32;6.55;;;;;;;23.29;64.13;101245.75;5122628;28;20073;-71
2023/09/11 03:53:31;;;;;;;8.75;6.22;;;;;;;23.41;64.28;101260.53;5119109;28;20077;-71
2023/09/11 03:55:57;;;;;;;8.48;7.18;;;;;;;23.42;64.24;101255.94;5115359;28;20030;-71
2023/09/11 03:58:22;;;;;;;7.72;7.03;;;;;;;23.42;64.22;101253.22;5112080;28;20091;-71
2023/09/11 04:00:48;;;;;;;7.72;7.03;;;;;;;23.42;64.25;101255.94;5121408;28;20028;-71
2023/09/11 04:03:13;;;;;;;7.78;6.97;;;;;;;23.43;64.29;101250.31;5114215;28;20081;-71
2023/09/11 04:05:39;;;;;;;7.18;6.28;;;;;;;23.42;64.35;101251.34;5109369;28;20019;-71
2023/09/11 04:08:04;;;;;;;8.18;6.38;;;;;;;23.35;64.24;101234.13;5111090;27;20051;-71
2023/09/11 04:10:30;;;;;;;8.07;7.13;;;;;;;23.20;64.02;101211.63;5106270;28;20028;-71
2023/09/11 04:12:55;;;;;;;7.32;6.50;;;;;;;23.20;63.81;101214.34;5110808;28;20080;-71
2023/09/11 04:15:20;;;;;;;7.65;6.95;;;;;;;23.42;63.95;101247.78;5115844;27;20024;-71
2023/09/11 04:17:45;;;;;;;8.75;7.47;;;;;;;23.41;63.92;101255.09;5107866;28;20020;-71
2023/09/11 04:20:11;;;;;;;8.25;7.18;;;;;;;23.39;64.10;101248.16;5111039;28;20059;-71
2023/09/11 04:22:36;;;;;;;12.63;7.90;;;;;;;23.41;63.96;101246.94;5107264;28;20028;-71
2023/09/11 04:25:03;;;;;;;7.90;7.20;;;;;;;23.41;63.93;101246.13;5108263;28;20027;-71
2023/09/11 04:27:28;;;;;;;7.95;7.15;;;;;;;23.41;64.05;101244.25;5110957;28;20034;-71
2023/09/11 04:29:53;;;;;;;7.60;6.78;;;;;;;23.41;63.98;101238.81;5107884;28;20032;-72
2023/09/11 04:32:20;;;;;;;7.22;6.53;;;;;;;23.11;63.84;101199.22;5108538;28;20062;-71
2023/09/11 04:34:46;;;;;;;8.20;6.40;;;;;;;23.37;63.69;101229.38;5112790;28;20543;-71
2023/09/11 04:37:11;;;;;;;8.18;7.38;;;;;;;23.40;63.84;101239.81;5110491;28;20100;-71
2023/09/11 04:39:37;;;;;;;7.32;6.63;;;;;;;23.41;63.97;101246.13;5121908;28;20110;-71
2023/09/11 04:42:02;;;;;;;9.68;7.60;;;;;;;23.23;63.89;101215.81;5096481;28;20392;-71
2023/09/11 04:44:28;;;;;;;9.32;6.93;;;;;;;23.38;63.82;101238.34;5122326;28;20595;-71
2023/09/11 04:46:53;;;;;;;8.10;6.43;;;;;;;23.40;63.81;101237.09;5109767;28;20043;-71
2023/09/11 04:49:18;;;;;;;8.20;7.00;;;;;;;23.33;63.79;101222.63;5112063;28;20093;-71
2023/09/11 04:51:44;;;;;;;8.15;6.78;;;;;;;23.16;63.49;101192.19;5111277;28;20019;-71
2023/09/11 04:54:09;;;;;;;8.23;7.40;;;;;;;23.22;63.76;101198.69;5111952;28;20020;-71
2023/09/11 04:56:34;;;;;;;7.93;7.22;;;;;;;23.40;63.48;101219.97;5112166;28;20024;-71
2023/09/11 04:58:59;;;;;;;7.50;6.32;;;;;;;23.41;63.25;101218.97;5111035;28;20427;-71
2023/09/11 05:01:25;;;;;;;7.40;6.60;;;;;;;23.05;63.35;101164.69;5111530;28;20031;-71
2023/09/11 05:03:50;;;;;;;7.82;6.88;;;;;;;23.16;63.68;101184.03;5114171;28;20031;-71
2023/09/11 05:06:15;;;;;;;8.10;6.82;;;;;;;23.40;63.66;101214.56;5107808;28;20426;-71
2023/09/11 05:08:42;;;;;;;8.15;6.82;;;;;;;23.20;63.52;101184.50;5115572;28;20036;-71
2023/09/11 05:11:07;;;;;;;8.10;7.15;;;;;;;23.40;63.42;101215.41;5113871;28;20038;-72
2023/09/11 05:13:32;;;;;;;8.05;7.25;;;;;;;23.18;63.52;101176.53;5110015;27;20020;-71
2023/09/11 05:15:57;;;;;;;7.22;6.50;;;;;;;23.39;63.43;101211.00;5118095;27;20507;-71
2023/09/11 05:18:23;;;;;;;8.07;7.25;;;;;;;23.40;63.40;101217.28;5120169;28;20230;-71
2023/09/11 05:20:50;;;;;;;6.95;6.30;;;;;;;23.38;63.36;101217.47;5106792;28;20049;-71
2023/09/11 05:23:16;;;;;;;7.97;6.72;;;;;;;23.39;63.28;101215.59;5116647;28;20073;-71
2023/09/11 05:25:42;;;;;;;7.90;7.10;;;;;;;23.20;63.38;101198.91;5112694;28;20016;-71
2023/09/11 05:28:07;;;;;;;7.65;6.85;;;;;;;23.15;63.21;101192.34;5108160;28;20162;-71
2023/09/11 05:30:32;;;;;;;8.07;6.75;;;;;;;23.34;63.33;101215.34;5120180;28;20079;-71
2023/09/11 05:32:58;;;;;;;8.35;6.70;;;;;;;23.23;63.41;101203.09;5111716;28;20061;-71
2023/09/11 05:35:23;;;;;;;8.88;7.32;;;;;;;23.23;63.53;101200.38;5109083;28;20108;-71
2023/09/11 05:37:48;;;;;;;10.02;7.35;;;;;;;22.90;63.46;101149.31;5116897;27;20062;-71
2023/09/11 05:40:14;;;;;;;8.27;6.85;;;;;;;23.38;63.33;101231.03;5110681;28;20024;-72
2023/09/11 05:42:39;;;;;;;7.60;6.68;;;;;;;23.38;63.20;101231.03;5110565;28;20023;-72
2023/09/11 05:45:06;;;;;;;7.43;6.72;;;;;;;23.21;63.43;101205.16;5115746;28;20031;-72
2023/09/11 05:47:32;;;;;;;8.15;7.35;;;;;;;23.11;63.36;101186.50;5109385;28;20491;-72
2023/09/11 05:50:00;;;;;;;9.75;7.05;;;;;;;23.33;63.23;101222.63;5113887;28;20537;-72
2023/09/11 05:52:26;;;;;;;7.50;6.70;;;;;;;23.38;63.37;101232.91;5114584;28;20023;-72
2023/09/11 05:54:52;;;;;;;7.80;7.00;;;;;;;23.38;63.36;101235.63;5107691;28;20043;-72
2023/09/11 05:57:17;;;;;;;8.27;6.65;;;;;;;23.37;63.37;101245.66;5116782;28;20024;-71
2023/09/11 05:59:42;;;;;;;8.48;6.32;;;;;;;23.24;63.41;101215.66;5112536;28;20026;-72
2023/09/11 06:02:08;;;;;;;7.57;6.88;;;;;;;23.32;63.44;101223.69;5106403;28;20127;-72
2023/09/11 06:04:33;;;;;;;8.25;6.70;;;;;;;23.37;63.34;101240.22;5118300;28;20022;-71
2023/09/11 06:06:58;;;;;;;8.98;7.18;;;;;;;23.24;63.33;101212.09;5120973;28;20114;-72
2023/09/11 06:09:23;;;;;;;18.85;14.48;;;;;;;23.41;63.29;101236.09;5107583;28;20052;-72
2023/09/11 06:11:49;;;;;;;19.25;15.60;;;;;;;23.37;63.78;101234.78;5118121;28;20063;-72
2023/09/11 06:14:15;;;;;;;21.00;17.77;;;;;;;23.25;64.30;101236.31;5112957;28;20019;-72
2023/09/11 06:16:40;;;;;;;21.45;17.48;;;;;;;23.15;64.87;101247.47;5122220;28;20092;-72
2023/09/11 06:19:05;;;;;;;27.70;18.35;;;;;;;22.61;65.16;101179.94;5113887;28;20058;-72
2023/09/11 06:21:31;;;;;;;21.67;17.75;;;;;;;22.90;65.98;101235.22;5104200;28;20074;-73
2023/09/11 06:23:56;;;;;;;23.98;18.27;;;;;;;22.89;66.17;101242.47;5107815;28;20051;-72
2023/09/11 06:26:21;;;;;;;23.27;17.77;;;;;;;22.68;66.17;101213.41;5104844;28;20019;-72
2023/09/11 06:28:47;;;;;;;23.73;17.80;;;;;;;22.61;66.40;101201.63;5104910;28;20028;-72
2023/09/11 06:31:12;;;;;;;23.75;19.88;;;;;;;22.69;66.65;101214.25;5117916;28;20031;-72
2023/09/11 06:33:37;;;;;;;22.73;17.33;;;;;;;22.78;66.69;101232.09;5107805;28;20018;-72
2023/09/11 06:36:03;;;;;;;23.17;18.60;;;;;;;22.67;66.51;101211.72;5105472;28;20024;-73
2023/09/11 06:38:29;;;;;;;22.67;19.05;;;;;;;22.76;66.97;101217.88;5109485;28;20020;-72
2023/09/11 06:40:54;;;;;;;21.10;17.50;;;;;;;22.84;66.70;101216.94;5114003;28;20092;-72
2023/09/11 06:43:19;;;;;;;23.88;18.63;;;;;;;22.83;66.83;101218.81;5107547;28;20070;-73
2023/09/11 06:45:45;;;;;;;22.25;17.73;;;;;;;22.79;66.90;101216.66;5107633;28;20024;-72
2023/09/11 06:48:11;;;;;;;18.85;16.33;;;;;;;22.74;66.79;101209.09;5108232;28;20020;-72
2023/09/11 06:50:39;;;;;;;20.65;16.63;;;;;;;22.48;66.75;101157.25;5107538;28;20081;-72
2023/09/11 06:53:09;;;;;;;24.08;16.75;;;;;;;22.65;66.87;101181.25;5120261;28;20032;-73
2023/09/11 06:55:35;;;;;;;21.67;16.95;;;;;;;22.85;67.05;101214.06;5121947;28;20476;-72
2023/09/11 06:58:01;;;;;;;20.92;16.77;;;;;;;22.87;67.06;101211.16;5119475;28;20031;-72
2023/09/11 07:00:26;;;;;;;18.58;15.32;;;;;;;22.66;66.96;101191.06;5114561;28;20031;-72
2023/09/11 07:02:52;;;;;;;21.73;13.98;;;;;;;22.88;67.06;101220.97;5108057;28;20332;-72
2023/09/11 07:05:18;;;;;;;16.58;13.93;;;;;;;22.92;67.28;101223.16;5108825;28;20098;-72
2023/09/11 07:07:44;;;;;;;16.98;14.80;;;;;;;22.95;66.92;101211.09;5109873;28;20048;-72
2023/09/11 07:10:11;;;;;;;21.15;15.63;;;;;;;22.99;66.82;101219.69;5106294;28;20035;-72
2023/09/11 07:12:37;;;;;;;22.85;15.00;;;;;;;23.00;66.58;101208.66;5111357;28;20027;-72
2023/09/11 07:15:03;;;;;;;15.75;13.95;;;;;;;23.04;66.60;101214.53;5112985;28;20024;-72
2023/09/11 07:17:28;;;;;;;20.00;14.75;;;;;;;22.82;66.74;101179.19;5106265;28;20027;-72
2023/09/11 07:19:53;;;;;;;17.35;15.52;;;;;;;23.06;66.71;101217.91;5112951;28;20055;-72
2023/09/11 07:22:19;;;;;;;17.23;14.07;;;;;;;22.98;66.58;101216.16;5111478;28;20047;-71
2023/09/11 07:24:44;;;;;;;14.77;13.18;;;;;;;22.52;66.64;101140.41;5108813;28;20475;-72
2023/09/11 07:27:09;;;;;;;19.30;14.70;;;;;;;22.92;66.57;101209.59;5112296;28;20024;-72
2023/09/11 07:29:35;;;;;;;17.90;14.48;;;;;;;23.14;66.81;101237.63;5110358;28;20089;-71
2023/09/11 07:32:00;;;;;;;19.13;14.45;;;;;;;22.93;66.77;101205.00;5108193;28;20020;-73
2023/09/11 07:34:25;;;;;;;21.05;14.10;;;;;;;22.95;66.83;101197.53;5112764;28;20088;-72
2023/09/11 07:36:51;;;;;;;18.08;14.10;;;;;;;23.14;66.45;101226.78;5108620;28;20024;-73
2023/09/11 07:39:16;;;;;;;15.50;12.50;;;;;;;23.02;66.44;101212.00;5107555;28;20028;-72
2023/09/11 07:41:41;;;;;;;17.25;14.60;;;;;;;23.17;66.32;101231.81;5117395;28;20024;-72
2023/09/11 07:44:06;;;;;;;20.67;14.65;;;;;;;22.94;66.26;101193.16;5111406;28;20024;-72
2023/09/11 07:46:32;;;;;;;21.38;13.43;;;;;;;22.99;66.21;101193.41;5114678;28;20083;-72
2023/09/11 07:48:57;;;;;;;14.80;12.98;;;;;;;23.20;65.86;101225.19;5117825;28;20036;-71
2023/09/11 07:51:22;;;;;;;22.60;16.00;;;;;;;23.00;65.96;101194.25;5114410;28;20027;-78
2023/09/11 07:53:49;;;;;;;19.27;15.35;;;;;;;23.13;65.90;101225.09;5118071;28;20047;-80
2023/09/11 07:56:14;;;;;;;16.65;12.75;;;;;;;23.19;65.84;101229.78;5116460;28;20040;-79
2023/09/11 07:58:40;;;;;;;14.57;10.93;;;;;;;23.24;66.01;101231.09;5109413;28;20030;-78
2023/09/11 08:01:05;;;;;;;17.25;12.68;;;;;;;23.26;65.74;101223.59;5124054;28;20015;-76
2023/09/11 08:03:34;;;;;;;18.55;12.38;;;;;;;23.27;65.80;101233.41;5122879;28;20083;-74
2023/09/11 08:05:59;;;;;;;16.27;11.35;;;;;;;23.29;65.66;101232.19;5107197;28;20026;-76
2023/09/11 08:08:26;;;;;;;12.23;10.18;;;;;;;23.06;65.53;101191.63;5106477;28;20048;-77
2023/09/11 08:10:51;;;;;;;16.92;11.65;;;;;;;23.32;65.54;101236.38;5105035;28;20024;-77
2023/09/11 08:13:17;;;;;;;12.45;10.43;;;;;;;23.04;65.37;101192.84;5094882;28;20027;-79
2023/09/11 08:15:42;;;;;;;13.77;11.80;;;;;;;23.33;65.67;101236.19;5121560;27;20056;-78
2023/09/11 08:18:07;;;;;;;12.52;10.38;;;;;;;23.34;65.88;101242.47;5110984;28;20473;-77
2023/09/11 08:20:32;;;;;;;11.20;10.10;;;;;;;23.18;65.50;101221.81;5113222;28;20016;-76
2023/09/11 08:22:58;;;;;;;14.52;11.10;;;;;;;23.19;65.91;101220.78;5116766;28;20026;-76
2023/09/11 08:25:23;;;;;;;14.60;10.40;;;;;;;23.36;65.68;101245.81;5110343;28;20483;-75
2023/09/11 08:27:49;;;;;;;15.07;9.65;;;;;;;23.30;65.51;101239.28;5116128;28;20027;-75
2023/09/11 08:30:14;;;;;;;12.90;9.52;;;;;;;23.11;65.29;101205.47;5116300;28;20488;-75
2023/09/11 08:32:40;;;;;;;13.70;10.60;;;;;;;23.32;65.71;101233.66;5115446;28;20647;-76
2023/09/11 08:35:05;;;;;;;13.23;9.88;;;;;;;23.27;65.57;101227.97;5109891;28;20028;-76
2023/09/11 08:37:31;;;;;;;12.40;10.02;;;;;;;23.17;65.75;101212.00;5105599;28;20028;-76
2023/09/11 08:39:56;;;;;;;11.27;10.13;;;;;;;23.14;65.48;101198.81;5106725;28;20464;-74
2023/09/11 08:42:24;;;;;;;12.60;10.23;;;;;;;23.35;65.57;101236.84;5109195;28;20066;-75
2023/09/11 08:44:50;;;;;;;10.30;8.98;;;;;;;23.19;65.59;101204.50;5106344;28;20088;-74
2023/09/11 08:47:16;;;;;;;12.05;9.57;;;;;;;23.33;65.50;101221.81;5110842;28;20032;-74
2023/09/11 08:49:43;;;;;;;10.98;9.60;;;;;;;23.36;65.43;101230.41;5109788;28;20119;-75
2023/09/11 08:52:12;;;;;;;12.40;10.75;;;;;;;23.43;65.57;101244.88;5102659;28;20024;-75
2023/09/11 08:54:41;;;;;;;11.80;9.75;;;;;;;23.32;65.67;101228.22;5109610;28;20023;-74
2023/09/11 08:57:12;;;;;;;12.00;9.05;;;;;;;23.32;65.52;101223.69;5108274;28;20044;-74
2023/09/11 08:59:40;;;;;;;14.20;10.05;;;;;;;23.20;65.28;101206.22;5109083;28;20049;-75
2023/09/11 09:02:06;;;;;;;10.70;9.10;;;;;;;23.31;65.49;101223.84;5109156;28;20053;-76
2023/09/11 09:04:34;;;;;;;10.30;8.65;;;;;;;23.19;65.35;101201.78;5099025;28;20367;-76
2023/09/11 09:07:00;;;;;;;11.15;8.73;;;;;;;23.27;65.38;101211.69;5107507;28;20020;-76
2023/09/11 09:09:25;;;;;;;9.75;8.75;;;;;;;23.45;65.30;101248.25;5121750;28;20052;-72
2023/09/11 09:11:51;;;;;;;12.18;9.93;;;;;;;23.44;65.41;101243.84;5109693;28;20076;-74
2023/09/11 09:14:20;;;;;;;11.45;9.00;;;;;;;23.38;65.33;101236.47;5098019;28;20489;-75
2023/09/11 09:16:46;;;;;;;11.00;9.15;;;;;;;23.22;65.36;101208.72;5127289;27;20020;-75
2023/09/11 09:19:12;;;;;;;9.73;8.73;;;;;;;23.06;65.58;101178.06;5110539;28;20836;-75
2023/09/11 09:22:07;;;;;;;9.82;8.80;;;;;;;23.43;65.43;101238.59;5110014;28;20061;-75
2023/09/11 09:24:49;;;;;;;10.95;9.07;;;;;;;23.07;65.37;101187.91;5099985;28;20027;-75
2023/09/11 09:27:14;;;;;;;9.52;8.27;;;;;;;23.27;65.57;101223.38;5110455;28;20023;-75
2023/09/11 09:29:39;;;;;;;9.05;8.15;;;;;;;23.22;65.52;101212.25;5112118;28;20096;-75
2023/09/11 09:32:07;;;;;;;11.77;9.38;;;;;;;23.44;65.48;101248.44;5119734;28;20028;-75
2023/09/11 09:34:34;;;;;;;10.30;8.63;;;;;;;23.29;65.62;101229.47;5106421;28;20103;-75
2023/09/11 09:36:59;;;;;;;9.63;8.63;;;;;;;23.23;65.54;101222.06;5112282;28;20031;-74
2023/09/11 09:39:28;;;;;;;9.82;8.45;;;;;;;23.17;65.46;101204.69;5112478;28;20020;-76
2023/09/11 09:42:07;;;;;;;11.90;8.50;;;;;;;23.02;65.58;101182.16;5096425;28;20027;-75
2023/09/11 09:44:39;;;;;;;9.65;8.75;;;;;;;23.43;65.61;101246.75;5114903;28;20058;-75
2023/09/11 09:47:13;;;;;;;9.15;8.23;;;;;;;23.43;65.57;101246.75;5110659;28;20460;-75
2023/09/11 09:49:49;;;;;;;9.27;8.38;;;;;;;23.44;65.42;101243.00;5104570;28;20695;-75
2023/09/11 09:52:15;;;;;;;10.20;9.20;;;;;;;23.17;65.51;101195.72;5119838;28;20031;-75
2023/09/11 09:54:51;;;;;;;9.27;8.25;;;;;;;23.43;65.55;101242.16;5114081;28;20024;-75
2023/09/11 09:57:19;;;;;;;10.60;9.15;;;;;;;23.43;65.47;101239.44;5102943;28;20054;-75
2023/09/11 09:59:49;;;;;;;9.32;8.07;;;;;;;23.43;65.62;101239.44;5120533;28;20028;-75
2023/09/11 10:02:31;;;;;;;8.98;7.93;;;;;;;23.25;65.49;101208.34;5102372;28;20058;-75
2023/09/11 10:05:03;;;;;;;11.07;8.68;;;;;;;23.44;65.47;101238.41;5105331;28;20055;-75
2023/09/11 10:07:41;;;;;;;8.55;7.75;;;;;;;23.38;65.60;101228.34;5110455;28;20056;-75
2023/09/11 10:10:30;;;;;;;9.95;8.43;;;;;;;23.22;65.40;101195.16;5122434;28;20034;-75
2023/09/11 10:13:04;;;;;;;;;;;;;;;23.44;65.60;101241.13;5115000;28;20020;-75
2023/09/11 10:15:31;;;;;;;9.27;8.15;;;;;;;23.44;65.58;101230.25;5128087;27;19907;-76
2023/09/11 10:17:57;;;;;;;9.65;8.75;;;;;;;23.44;65.63;101230.25;5113944;28;20111;-77
2023/09/11 10:20:23;;;;;;;11.98;8.55;;;;;;;23.44;65.53;101224.00;5113897;28;20584;-75
2023/09/11 10:22:53;;;;;;;9.52;8.30;;;;;;;23.30;65.63;101201.31;5107160;28;20028;-75
2023/09/11 10:25:21;;;;;;;9.25;8.00;;;;;;;23.24;65.45;101190.41;5116984;28;20103;-75
2023/09/11 10:27:49;;;;;;;9.75;8.02;;;;;;;23.45;65.61;101220.28;5110512;28;20051;-75
2023/09/11 10:30:20;;;;;;;11.13;9.00;;;;;;;23.45;65.79;101218.41;5104465;28;20026;-76
2023/09/11 10:32:49;;;;;;;8.98;8.00;;;;;;;23.02;65.71;101167.78;5118198;28;20305;-75
2023/09/11 10:35:15;;;;;;;9.77;8.13;;;;;;;23.47;65.47;101220.06;5103282;28;20021;-76
2023/09/11 10:37:41;;;;;;;9.50;8.50;;;;;;;23.47;65.62;101218.19;5108014;28;20400;-75
2023/09/11 10:40:08;;;;;;;9.25;8.15;;;;;;;23.31;65.62;101199.44;5115747;28;20115;-76
2023/09/11 10:42:34;;;;;;;9.13;8.20;;;;;;;23.31;65.75;101197.56;5111457;28;20046;-75
2023/09/11 10:44:59;;;;;;;8.93;7.97;;;;;;;23.41;65.56;101202.69;5102840;28;20024;-75
2023/09/11 10:47:26;;;;;;;10.30;8.25;;;;;;;23.20;65.54;101177.19;5093632;28;20016;-75
2023/09/11 10:49:56;;;;;;;8.18;7.38;;;;;;;23.42;65.64;101210.63;5107282;28;20043;-76
2023/09/11 10:52:22;;;;;;;8.23;7.35;;;;;;;23.22;65.63;101178.88;5107132;28;20074;-74
2023/09/11 10:54:47;;;;;;;9.15;8.25;;;;;;;23.49;65.75;101226.13;5105988;28;20016;-75
2023/09/11 10:57:13;;;;;;;10.38;8.50;;;;;;;23.24;65.50;101180.38;5119958;28;20027;-76
2023/09/11 10:59:38;;;;;;;9.40;8.23;;;;;;;23.50;65.77;101219.69;5110816;28;20016;-76
2023/09/11 11:02:04;;;;;;;9.85;8.63;;;;;;;23.44;65.59;101213.97;5102580;28;20024;-76
2023/09/11 11:04:31;;;;;;;9.43;8.35;;;;;;;23.49;65.64;101216.16;5120009;28;20030;-76
2023/09/11 11:06:59;;;;;;;8.85;7.72;;;;;;;23.19;65.60;101178.25;5106918;28;20028;-75
2023/09/11 11:09:27;;;;;;;9.60;8.27;;;;;;;23.51;65.75;101214.06;5108104;28;20044;-75
2023/09/11 11:11:59;;;;;;;8.63;7.82;;;;;;;23.21;65.74;101164.47;5107325;28;20096;-76
2023/09/11 11:14:25;;;;;;;9.98;8.30;;;;;;;23.51;65.54;101214.06;5122236;28;20032;-76
2023/09/11 11:17:11;;;;;;;10.02;9.02;;;;;;;23.52;65.48;101218.47;5112975;28;20511;-76
2023/09/11 11:19:39;;;;;;;8.65;7.68;;;;;;;23.51;65.57;101215.94;5113827;28;20028;-76